createdAt,value
2023-04-06T00:01:01.792Z,52.35
2023-04-06T00:04:03.590Z,52.69
2023-04-06T00:07:05.337Z,53.35
2023-04-06T00:10:07.453Z,52.62
2023-04-06T00:13:09.098Z,52.84
2023-04-06T00:16:10.791Z,52.82
2023-04-06T00:19:12.404Z,51.90
2023-04-06T00:22:13.973Z,52.08
2023-04-06T00:25:16.465Z,51.95
2023-04-06T00:28:18.346Z,52.52
2023-04-06T00:31:19.894Z,51.79
2023-04-06T00:34:21.686Z,51.67
2023-04-06T00:37:23.364Z,51.73
2023-04-06T00:40:25.253Z,51.76
2023-04-06T00:43:26.951Z,51.69
2023-04-06T00:46:29.411Z,51.79
2023-04-06T00:49:33.485Z,51.83
2023-04-06T00:52:36.525Z,52.44
2023-04-06T00:55:39.926Z,52.28
2023-04-06T00:58:42.107Z,52.08
2023-04-06T01:01:44.889Z,52.30
2023-04-06T01:05:02.707Z,52.06
2023-04-06T01:08:26.026Z,52.72
2023-04-06T01:11:33.417Z,53.06
2023-04-06T01:14:37.114Z,52.56
2023-04-06T01:17:38.778Z,52.72
2023-04-06T01:20:46.717Z,52.75
2023-04-06T01:23:49.530Z,53.12
2023-04-06T01:26:57.661Z,52.30
2023-04-06T01:30:01.774Z,52.29
2023-04-06T01:33:12.993Z,52.24
2023-04-06T01:36:39.318Z,51.84
2023-04-06T01:39:55.000Z,52.12
2023-04-06T01:43:11.490Z,51.94
2023-04-06T01:46:37.141Z,52.17
2023-04-06T01:49:40.523Z,52.01
2023-04-06T01:52:42.380Z,51.95
2023-04-06T01:55:45.603Z,51.85
2023-04-06T01:59:00.953Z,51.79
2023-04-06T02:02:09.872Z,52.25
2023-04-06T02:05:13.055Z,51.54
2023-04-06T02:08:15.425Z,52.15
2023-04-06T02:11:17.034Z,52.00
2023-04-06T02:14:26.863Z,51.58
2023-04-06T02:17:31.583Z,51.54
2023-04-06T02:20:33.318Z,52.22
2023-04-06T02:23:34.830Z,52.74
2023-04-06T02:26:36.422Z,52.34
2023-04-06T02:29:38.343Z,52.92
2023-04-06T02:32:40.288Z,52.82
2023-04-06T02:35:42.141Z,52.57
2023-04-06T02:38:43.759Z,52.21
2023-04-06T02:41:45.958Z,52.75
2023-04-06T02:44:50.582Z,52.35
2023-04-06T02:47:53.208Z,52.44
2023-04-06T02:50:55.462Z,52.51
2023-04-06T02:53:57.181Z,53.73
2023-04-06T02:56:58.993Z,53.67
2023-04-06T03:00:10.518Z,53.45
2023-04-06T03:03:15.225Z,53.51
2023-04-06T03:06:18.423Z,53.14
2023-04-06T03:09:20.792Z,52.91
2023-04-06T03:12:22.619Z,52.98
2023-04-06T03:15:46.550Z,53.16
2023-04-06T03:18:51.858Z,53.06
2023-04-06T03:21:53.462Z,53.10
2023-04-06T03:24:56.732Z,52.99
2023-04-06T03:27:58.457Z,52.91
2023-04-06T03:31:00.551Z,53.16
2023-04-06T03:34:18.140Z,53.53
2023-04-06T03:37:19.701Z,53.73
2023-04-06T03:40:26.360Z,53.61
2023-04-06T03:43:27.878Z,53.56
2023-04-06T03:46:30.233Z,53.11
2023-04-06T03:49:33.845Z,52.71
2023-04-06T03:52:37.100Z,52.80
2023-04-06T03:55:38.619Z,52.57
2023-04-06T03:58:40.390Z,52.40
2023-04-06T04:01:41.909Z,52.72
2023-04-06T04:04:43.543Z,52.87
2023-04-06T04:07:45.179Z,52.80
2023-04-06T04:10:47.308Z,53.48
2023-04-06T04:13:48.930Z,53.00
2023-04-06T04:16:50.916Z,51.17
2023-04-06T04:19:53.347Z,50.12
2023-04-06T04:22:54.982Z,50.19
2023-04-06T04:25:56.614Z,49.79
2023-04-06T04:28:58.208Z,49.99
2023-04-06T04:31:59.777Z,50.01
2023-04-06T04:35:01.601Z,50.81
2023-04-06T04:38:11.286Z,50.15
2023-04-06T04:41:16.636Z,50.65
2023-04-06T04:44:19.410Z,50.20
2023-04-06T04:47:21.388Z,50.67
2023-04-06T04:50:23.744Z,50.37
2023-04-06T04:53:29.990Z,50.25
2023-04-06T04:56:37.375Z,50.30
2023-04-06T04:59:50.106Z,50.22
2023-04-06T05:02:54.008Z,50.65
2023-04-06T05:06:00.251Z,50.84
2023-04-06T05:09:05.629Z,50.86
2023-04-06T05:12:08.226Z,50.81
2023-04-06T05:15:16.481Z,50.77
2023-04-06T05:18:18.613Z,50.76
2023-04-06T05:21:21.360Z,50.36
2023-04-06T05:24:31.405Z,50.04
2023-04-06T05:27:33.747Z,50.24
2023-04-06T05:30:40.651Z,50.32
2023-04-06T05:33:44.602Z,49.77
2023-04-06T05:36:49.857Z,49.71
2023-04-06T05:39:55.456Z,49.25
2023-04-06T05:42:58.478Z,49.81
2023-04-06T05:46:00.398Z,50.29
2023-04-06T05:49:02.140Z,49.49
2023-04-06T05:52:07.095Z,49.76
2023-04-06T05:55:10.746Z,50.32
2023-04-06T05:58:13.743Z,48.73
2023-04-06T06:01:15.412Z,48.23
2023-04-06T06:04:20.915Z,48.29
2023-04-06T06:07:25.858Z,48.05
2023-04-06T06:10:35.924Z,47.90
2023-04-06T06:13:39.017Z,47.51
2023-04-06T06:16:40.932Z,47.90
2023-04-06T06:19:44.169Z,47.75
2023-04-06T06:22:45.752Z,47.60
2023-04-06T06:25:52.227Z,47.56
2023-04-06T06:28:56.538Z,47.76
2023-04-06T06:31:59.009Z,47.85
2023-04-06T06:35:00.743Z,48.08
2023-04-06T06:38:03.718Z,47.77
2023-04-06T06:41:05.276Z,47.63
2023-04-06T06:44:09.999Z,45.92
2023-04-06T06:47:13.610Z,46.01
2023-04-06T06:50:15.281Z,45.43
2023-04-06T06:53:16.887Z,45.34
2023-04-06T06:56:18.491Z,45.12
2023-04-06T06:59:21.577Z,45.10
2023-04-06T07:02:23.337Z,45.33
2023-04-06T07:05:28.758Z,45.31
2023-04-06T07:08:32.313Z,44.43
2023-04-06T07:11:33.931Z,43.93
2023-04-06T07:14:35.500Z,43.85
2023-04-06T07:17:37.231Z,43.59
2023-04-06T07:20:38.899Z,43.56
2023-04-06T07:23:41.073Z,43.15
2023-04-06T07:26:43.388Z,42.38
2023-04-06T07:29:45.593Z,41.80
2023-04-06T07:32:47.466Z,42.08
2023-04-06T07:35:49.544Z,42.05
2023-04-06T07:38:51.741Z,41.45
2023-04-06T07:41:53.931Z,41.07
2023-04-06T07:44:55.710Z,40.67
2023-04-06T07:47:57.608Z,39.22
2023-04-06T07:51:05.470Z,38.81
2023-04-06T07:54:10.924Z,38.61
2023-04-06T07:57:12.488Z,37.69
2023-04-06T08:00:14.585Z,37.75
2023-04-06T08:03:17.630Z,38.05
2023-04-06T08:06:19.333Z,38.15
2023-04-06T08:09:20.936Z,37.95
2023-04-06T08:12:22.515Z,38.42
2023-04-06T08:15:24.099Z,38.08
2023-04-06T08:18:25.659Z,38.40
2023-04-06T08:21:27.225Z,37.95
2023-04-06T08:24:28.795Z,37.39
2023-04-06T08:27:30.442Z,37.01
2023-04-06T08:30:32.061Z,36.38
2023-04-06T08:33:37.484Z,35.56
2023-04-06T08:36:39.065Z,35.16
2023-04-06T08:39:40.617Z,34.88
2023-04-06T08:42:49.767Z,33.87
2023-04-06T08:45:51.775Z,33.30
2023-04-06T08:48:53.496Z,34.37
2023-04-06T08:51:56.678Z,34.96
2023-04-06T08:54:58.449Z,35.02
2023-04-06T08:58:00.608Z,35.03
2023-04-06T09:01:06.762Z,33.07
2023-04-06T09:04:12.033Z,32.11
2023-04-06T09:07:15.328Z,31.85
2023-04-06T09:10:17.979Z,31.93
2023-04-06T09:13:19.549Z,31.44
2023-04-06T09:16:21.902Z,31.46
2023-04-06T09:19:23.491Z,31.08
2023-04-06T09:22:29.338Z,31.22
2023-04-06T09:25:32.272Z,31.28
2023-04-06T09:28:55.407Z,31.08
2023-04-06T09:32:04.982Z,30.98
2023-04-06T09:35:10.730Z,30.91
2023-04-06T09:38:13.111Z,31.29
2023-04-06T09:41:22.365Z,30.89
2023-04-06T09:44:25.089Z,31.75
2023-04-06T09:47:29.567Z,32.03
2023-04-06T09:50:31.877Z,31.42
2023-04-06T09:53:38.553Z,30.30
2023-04-06T09:56:52.390Z,29.66
2023-04-06T10:00:12.114Z,29.04
2023-04-06T10:03:35.063Z,28.76
2023-04-06T10:06:38.144Z,28.88
2023-04-06T10:09:39.825Z,29.19
2023-04-06T10:12:42.557Z,29.03
2023-04-06T10:15:44.262Z,28.95
2023-04-06T10:18:55.337Z,28.47
2023-04-06T10:21:59.729Z,28.40
2023-04-06T10:25:01.368Z,28.80
2023-04-06T10:28:07.379Z,28.45
2023-04-06T10:31:08.991Z,28.17
2023-04-06T10:34:10.744Z,28.26
2023-04-06T10:37:15.091Z,28.41
2023-04-06T10:40:21.453Z,28.13
2023-04-06T10:43:24.140Z,28.01
2023-04-06T10:46:27.830Z,27.67
2023-04-06T10:49:29.470Z,27.63
2023-04-06T10:52:31.691Z,27.59
2023-04-06T10:55:33.630Z,27.57
2023-04-06T10:58:35.405Z,27.41
2023-04-06T11:01:37.319Z,27.41
2023-04-06T11:04:39.113Z,27.27
2023-04-06T11:07:41.247Z,27.32
2023-04-06T11:10:42.803Z,27.39
2023-04-06T11:13:47.355Z,27.21
2023-04-06T11:16:51.090Z,26.60
2023-04-06T11:19:52.757Z,26.28
2023-04-06T11:22:54.448Z,26.28
2023-04-06T11:25:56.064Z,26.35
2023-04-06T11:28:57.757Z,26.42
2023-04-06T11:32:04.095Z,26.57
2023-04-06T11:35:06.181Z,26.47
2023-04-06T11:38:07.848Z,26.20
2023-04-06T11:41:09.380Z,26.23
2023-04-06T11:44:10.978Z,25.94
2023-04-06T11:47:13.484Z,25.78
2023-04-06T11:50:15.735Z,25.68
2023-04-06T11:53:17.878Z,25.45
2023-04-06T11:56:26.955Z,25.38
2023-04-06T11:59:28.833Z,24.89
2023-04-06T12:02:30.522Z,24.41
2023-04-06T12:05:34.362Z,23.96
2023-04-06T12:08:35.948Z,24.40
2023-04-06T12:11:37.561Z,24.51
2023-04-06T12:14:39.163Z,24.13
2023-04-06T12:17:41.063Z,23.94
2023-04-06T12:20:42.654Z,23.34
2023-04-06T12:23:44.455Z,23.17
2023-04-06T12:26:47.069Z,22.97
2023-04-06T12:29:49.901Z,22.66
2023-04-06T12:32:51.988Z,22.41
2023-04-06T12:35:53.577Z,23.03
2023-04-06T12:38:55.169Z,23.12
2023-04-06T12:41:57.322Z,23.12
2023-04-06T12:44:58.844Z,23.33
2023-04-06T12:48:00.733Z,23.57
2023-04-06T12:51:04.806Z,23.67
2023-04-06T12:54:07.047Z,23.07
2023-04-06T12:57:08.571Z,23.80
2023-04-06T13:00:10.624Z,23.89
2023-04-06T13:03:12.279Z,23.99
2023-04-06T13:06:15.658Z,24.30
2023-04-06T13:09:17.200Z,24.18
2023-04-06T13:12:19.850Z,24.04
2023-04-06T13:15:21.367Z,24.51
2023-04-06T13:18:23.865Z,25.75
2023-04-06T13:21:25.898Z,25.24
2023-04-06T13:24:27.553Z,25.23
2023-04-06T13:27:29.134Z,25.38
2023-04-06T13:30:30.841Z,25.41
2023-04-06T13:33:32.472Z,25.39
2023-04-06T13:36:34.100Z,24.81
2023-04-06T13:39:35.686Z,24.78
2023-04-06T13:42:38.756Z,24.80
2023-04-06T13:45:40.414Z,24.89
2023-04-06T13:48:42.587Z,24.64
2023-04-06T13:51:44.279Z,25.24
2023-04-06T13:54:46.159Z,25.34
2023-04-06T13:57:47.668Z,25.19
2023-04-06T14:00:49.320Z,25.17
2023-04-06T14:03:51.094Z,25.47
2023-04-06T14:06:52.629Z,25.45
2023-04-06T14:09:54.165Z,25.74
2023-04-06T14:12:56.575Z,26.21
2023-04-06T14:15:58.453Z,25.83
2023-04-06T14:19:00.263Z,26.06
2023-04-06T14:22:01.782Z,25.97
2023-04-06T14:25:03.455Z,25.78
2023-04-06T14:28:05.068Z,25.61
2023-04-06T14:31:14.580Z,26.29
2023-04-06T14:34:17.797Z,25.81
2023-04-06T14:37:19.512Z,25.60
2023-04-06T14:40:21.030Z,25.97
2023-04-06T14:43:22.681Z,25.84
2023-04-06T14:46:24.345Z,26.62
2023-04-06T14:49:25.978Z,26.56
2023-04-06T14:52:27.458Z,26.54
2023-04-06T14:55:29.041Z,26.29
2023-04-06T14:58:30.920Z,26.27
2023-04-06T15:01:37.027Z,26.39
2023-04-06T15:04:40.781Z,26.80
2023-04-06T15:07:42.286Z,26.95
2023-04-06T15:10:43.864Z,26.88
2023-04-06T15:13:45.658Z,27.08
2023-04-06T15:16:47.194Z,27.15
2023-04-06T15:19:48.645Z,27.10
2023-04-06T15:22:50.347Z,27.11
2023-04-06T15:25:52.576Z,27.42
2023-04-06T15:28:54.128Z,27.43
2023-04-06T15:31:55.970Z,27.56
2023-04-06T15:35:00.684Z,27.53
2023-04-06T15:38:03.307Z,28.45
2023-04-06T15:41:05.258Z,26.36
2023-04-06T15:44:06.870Z,26.15
2023-04-06T15:47:08.577Z,27.08
2023-04-06T15:50:11.020Z,28.21
2023-04-06T15:53:12.744Z,28.34
2023-04-06T15:56:14.593Z,27.89
2023-04-06T15:59:16.965Z,28.01
2023-04-06T16:02:20.151Z,28.15
2023-04-06T16:05:21.767Z,28.72
2023-04-06T16:08:23.275Z,28.29
2023-04-06T16:11:24.738Z,28.58
2023-04-06T16:14:26.240Z,28.65
2023-04-06T16:17:27.963Z,28.77
2023-04-06T16:20:30.555Z,28.76
2023-04-06T16:23:32.209Z,29.14
2023-04-06T16:26:34.061Z,29.30
2023-04-06T16:29:37.101Z,29.59
2023-04-06T16:32:38.853Z,29.97
2023-04-06T16:35:45.536Z,30.14
2023-04-06T16:38:47.058Z,30.68
2023-04-06T16:41:48.525Z,30.87
2023-04-06T16:44:50.103Z,30.89
2023-04-06T16:47:51.844Z,31.14
2023-04-06T16:50:53.472Z,31.61
2023-04-06T16:53:55.315Z,31.54
2023-04-06T16:56:56.826Z,31.45
2023-04-06T16:59:58.729Z,31.24
2023-04-06T17:03:00.620Z,31.41
2023-04-06T17:06:02.180Z,31.40
2023-04-06T17:09:03.668Z,31.47
2023-04-06T17:12:05.583Z,31.72
2023-04-06T17:15:07.673Z,32.24
2023-04-06T17:18:10.410Z,32.23
2023-04-06T17:21:14.417Z,32.85
2023-04-06T17:24:15.936Z,32.94
2023-04-06T17:27:17.458Z,32.68
2023-04-06T17:30:18.920Z,33.04
2023-04-06T17:33:20.386Z,33.27
2023-04-06T17:36:22.017Z,33.64
2023-04-06T17:39:23.601Z,33.96
2023-04-06T17:42:25.787Z,34.14
2023-04-06T17:45:27.429Z,34.19
2023-04-06T17:48:29.847Z,34.16
2023-04-06T17:51:31.657Z,34.06
2023-04-06T17:54:35.615Z,34.35
2023-04-06T17:57:40.026Z,34.28
2023-04-06T18:00:43.457Z,34.30
2023-04-06T18:03:44.872Z,34.72
2023-04-06T18:06:46.500Z,35.44
2023-04-06T18:09:47.985Z,35.71
2023-04-06T18:12:49.920Z,35.73
2023-04-06T18:15:51.548Z,36.01
2023-04-06T18:18:55.426Z,36.44
2023-04-06T18:21:57.031Z,36.66
2023-04-06T18:25:01.296Z,36.52
2023-04-06T18:28:02.790Z,36.98
2023-04-06T18:31:04.309Z,37.16
2023-04-06T18:34:05.906Z,37.40
2023-04-06T18:37:07.840Z,37.54
2023-04-06T18:40:39.118Z,41.23
2023-04-06T18:43:41.148Z,43.10
2023-04-06T18:46:46.430Z,43.59
2023-04-06T18:49:47.972Z,44.34
2023-04-06T18:52:49.507Z,44.47
2023-04-06T18:55:51.535Z,44.56
2023-04-06T18:58:53.076Z,44.63
2023-04-06T19:01:54.720Z,44.84
2023-04-06T19:04:56.475Z,45.03
2023-04-06T19:07:58.124Z,45.17
2023-04-06T19:11:05.348Z,45.18
2023-04-06T19:14:06.858Z,45.39
2023-04-06T19:17:08.381Z,45.64
2023-04-06T19:20:10.296Z,45.49
2023-04-06T19:23:11.811Z,45.78
2023-04-06T19:26:13.735Z,45.84
2023-04-06T19:29:15.520Z,45.59
2023-04-06T19:32:17.286Z,45.80
2023-04-06T19:35:19.125Z,45.87
2023-04-06T19:38:20.680Z,45.90
2023-04-06T19:41:22.172Z,45.45
2023-04-06T19:44:23.965Z,45.29
2023-04-06T19:47:25.663Z,45.30
2023-04-06T19:50:27.173Z,45.47
2023-04-06T19:53:28.634Z,46.09
2023-04-06T19:56:31.420Z,46.31
2023-04-06T19:59:34.390Z,47.29
2023-04-06T20:02:35.982Z,47.52
2023-04-06T20:05:37.774Z,47.09
2023-04-06T20:08:39.279Z,47.29
2023-04-06T20:11:41.137Z,47.38
2023-04-06T20:14:42.681Z,47.01
2023-04-06T20:17:44.498Z,46.87
2023-04-06T20:20:46.160Z,46.80
2023-04-06T20:23:47.696Z,47.10
2023-04-06T20:26:50.599Z,47.06
2023-04-06T20:29:52.064Z,47.53
2023-04-06T20:32:53.532Z,47.39
2023-04-06T20:35:58.714Z,47.25
2023-04-06T20:39:00.338Z,46.78
2023-04-06T20:42:01.825Z,46.62
2023-04-06T20:45:03.517Z,47.08
2023-04-06T20:48:05.183Z,46.96
2023-04-06T20:51:06.700Z,47.15
2023-04-06T20:54:08.402Z,47.48
2023-04-06T20:57:09.924Z,47.65
2023-04-06T21:00:12.193Z,47.78
2023-04-06T21:03:13.700Z,47.97
2023-04-06T21:06:15.800Z,48.12
2023-04-06T21:09:19.644Z,48.20
2023-04-06T21:12:21.172Z,48.26
2023-04-06T21:15:22.824Z,48.50
2023-04-06T21:18:24.937Z,47.99
2023-04-06T21:21:26.509Z,48.07
2023-04-06T21:24:28.017Z,47.96
2023-04-06T21:27:29.783Z,48.07
2023-04-06T21:30:37.085Z,47.91
2023-04-06T21:33:38.604Z,48.13
2023-04-06T21:36:41.307Z,47.86
2023-04-06T21:39:42.951Z,48.27
2023-04-06T21:42:44.424Z,48.70
2023-04-06T21:45:50.896Z,48.92
2023-04-06T21:48:52.712Z,49.01
2023-04-06T21:51:54.211Z,49.21
2023-04-06T21:54:55.715Z,49.35
2023-04-06T21:57:57.184Z,49.10
2023-04-06T22:00:58.925Z,48.98
2023-04-06T22:04:02.078Z,48.75
2023-04-06T22:07:03.857Z,48.79
2023-04-06T22:10:05.626Z,48.65
2023-04-06T22:13:07.222Z,49.30
2023-04-06T22:16:08.843Z,49.25
2023-04-06T22:19:10.642Z,49.26
2023-04-06T22:22:12.350Z,49.68
2023-04-06T22:25:14.860Z,49.95
2023-04-06T22:28:16.365Z,49.79
2023-04-06T22:31:17.896Z,49.82
2023-04-06T22:34:19.575Z,49.50
2023-04-06T22:37:21.193Z,48.37
2023-04-06T22:40:23.155Z,48.10
2023-04-06T22:43:24.621Z,48.07
2023-04-06T22:46:26.062Z,47.96
2023-04-06T22:49:27.563Z,48.17
2023-04-06T22:52:29.081Z,48.01
2023-04-06T22:55:31.139Z,48.31
2023-04-06T22:58:32.645Z,48.21
2023-04-06T23:01:34.203Z,48.39
2023-04-06T23:04:35.814Z,48.23
2023-04-06T23:07:37.326Z,48.30
2023-04-06T23:10:41.927Z,48.04
2023-04-06T23:13:43.340Z,48.42
2023-04-06T23:16:45.363Z,48.21
2023-04-06T23:19:47.254Z,48.06
2023-04-06T23:22:48.721Z,47.59
2023-04-06T23:25:50.172Z,47.64
2023-04-06T23:28:51.788Z,47.85
2023-04-06T23:31:53.321Z,47.95
2023-04-06T23:34:54.797Z,47.96
2023-04-06T23:37:56.349Z,47.53
2023-04-06T23:40:57.837Z,47.13
2023-04-06T23:43:59.482Z,47.49
2023-04-06T23:47:01.423Z,47.14
2023-04-06T23:50:03.274Z,46.84
2023-04-06T23:53:04.999Z,46.59
2023-04-06T23:56:06.889Z,46.72
2023-04-06T23:59:08.402Z,46.84
